Time;durP1;ratioP1;P1;durP2;ratioP2;P2;SDS_P1;SDS_P2;PMS_P1;PMS_P2;Temp;Humidity;BMP_temperature;BMP_pressure;BME280_temperature;BME280_humidity;BME280_pressure;Samples;Min_cycle;Max_cycle;Signal;HPM_P1;HPM_P2
2023/04/27 05:58:21;;;;;;;;;6.00;5.00;;;;;18.20;45.13;101378.56;5096879;27;45399;-75
2023/04/27 06:00:47;;;;;;;;;6.00;6.00;;;;;18.77;45.81;101382.22;5088232;27;45552;-75
2023/04/27 06:03:12;;;;;;;;;5.00;5.00;;;;;19.58;46.66;101386.56;5082331;27;47960;-75
2023/04/27 06:05:37;;;;;;;;;4.25;4.25;;;;;20.48;46.14;101375.53;5076022;27;46176;-75
2023/04/27 06:08:03;;;;;;;;;6.50;4.75;;;;;21.34;45.73;101376.22;5089991;27;46041;-75
2023/04/27 06:10:28;;;;;;;;;5.00;3.75;;;;;22.11;45.36;101386.38;5083606;27;45466;-75
2023/04/27 06:12:53;;;;;;;;;7.75;6.00;;;;;22.76;44.59;101385.72;5085362;27;45446;-75
2023/04/27 06:15:18;;;;;;;;;6.75;4.75;;;;;23.34;44.29;101391.03;5087658;27;45388;-75
2023/04/27 06:17:44;;;;;;;;;5.00;5.00;;;;;23.86;43.87;101397.66;5088005;27;45766;-76
2023/04/27 06:20:10;;;;;;;;;6.00;6.00;;;;;24.29;43.33;101392.47;5089608;27;45515;-75
2023/04/27 06:22:36;;;;;;;;;6.33;6.33;;;;;24.68;43.05;101391.19;5082925;27;45490;-75
2023/04/27 06:25:02;;;;;;;;;5.00;3.67;;;;;25.03;42.61;101384.94;5079105;27;45469;-74
2023/04/27 06:27:28;;;;;;;;;5.00;5.00;;;;;25.32;41.96;101380.97;5085616;27;45921;-77
2023/04/27 06:29:53;;;;;;;;;6.00;6.00;;;;;25.55;41.28;101381.25;5087997;27;45497;-75
2023/04/27 06:32:18;;;;;;;;;5.00;4.33;;;;;25.77;41.19;101382.47;5087388;27;45659;-76
2023/04/27 06:34:44;;;;;;;;;2.00;2.00;;;;;25.97;40.64;101384.88;5081890;27;45534;-76
2023/04/27 06:37:09;;;;;;;;;6.67;6.67;;;;;26.16;40.60;101389.09;5088923;27;45518;-78
2023/04/27 06:39:35;;;;;;;;;5.00;4.67;;;;;26.31;40.61;101388.44;5079281;27;45713;-78
2023/04/27 06:42:03;;;;;;;;;5.67;5.00;;;;;26.47;40.01;101384.84;5088509;27;45402;-77
2023/04/27 06:44:28;;;;;;;;;5.00;4.00;;;;;26.61;39.58;101388.75;5080332;27;45406;-77
2023/04/27 06:46:53;;;;;;;;;4.33;4.33;;;;;26.73;39.95;101380.19;5087916;27;45999;-77
2023/04/27 06:49:19;;;;;;;;;5.00;5.00;;;;;26.84;39.27;101379.81;5084879;27;51736;-76
2023/04/27 06:51:45;;;;;;;;;7.67;4.00;;;;;26.94;39.03;101376.91;5083798;27;45377;-75
2023/04/27 06:54:10;;;;;;;;;4.33;4.33;;;;;27.02;39.14;101376.03;5087798;27;45546;-75
2023/04/27 06:56:36;;;;;;;;;5.00;5.00;;;;;27.08;38.80;101376.19;5082542;27;45763;-75
2023/04/27 06:59:01;;;;;;;;;4.00;4.00;;;;;27.13;38.71;101372.91;5076314;27;45357;-76
2023/04/27 07:01:26;;;;;;;;;4.00;4.00;;;;;27.20;38.09;101376.63;5081035;27;49917;-78
2023/04/27 07:03:52;;;;;;;;;4.00;4.00;;;;;27.25;37.70;101377.97;5078426;27;45379;-78
2023/04/27 07:06:17;;;;;;;;;7.00;6.67;;;;;27.28;38.16;101381.19;5083537;27;46880;-78
2023/04/27 07:08:43;;;;;;;;;4.67;4.67;;;;;27.34;38.25;101382.34;5088690;27;45678;-77
2023/04/27 07:11:08;;;;;;;;;4.00;4.00;;;;;27.41;38.19;101379.72;5074430;27;45697;-78
2023/04/27 07:13:33;;;;;;;;;5.00;5.00;;;;;27.47;37.46;101382.59;5071805;28;45814;-77
2023/04/27 07:15:59;;;;;;;;;5.33;5.33;;;;;27.55;37.25;101378.13;5074019;28;46180;-77
2023/04/27 07:18:26;;;;;;;;;4.67;4.67;;;;;27.62;37.72;101369.06;5055715;27;45722;-77
2023/04/27 07:20:52;;;;;;;;;4.00;4.00;;;;;27.67;37.17;101356.78;5054871;28;46135;-80
2023/04/27 07:23:18;;;;;;;;;2.33;2.33;;;;;27.73;36.93;101370.53;5065294;28;45623;-76
2023/04/27 07:25:45;;;;;;;;;5.00;5.00;;;;;27.39;33.65;101360.00;5069777;28;45463;-77
2023/04/27 07:28:10;;;;;;;;;3.67;2.00;;;;;26.52;34.49;101365.28;5070301;28;45514;-75
2023/04/27 07:30:36;;;;;;;;;7.33;5.00;;;;;25.70;35.13;101356.97;5073480;28;45384;-75
2023/04/27 07:33:01;;;;;;;;;5.33;5.00;;;;;25.03;36.21;101361.38;5061886;28;45448;-79
2023/04/27 07:35:27;;;;;;;;;7.00;7.00;;;;;24.45;36.84;101364.59;5063260;28;46357;-79
2023/04/27 07:37:52;;;;;;;;;5.67;5.67;;;;;24.00;37.64;101373.72;5073357;28;45476;-79
2023/04/27 07:40:17;;;;;;;;;4.33;4.33;;;;;23.63;38.15;101381.03;5049745;28;45729;-79
2023/04/27 07:42:45;;;;;;;;;3.67;3.00;;;;;23.29;38.90;101383.34;5065036;28;45579;-75
2023/04/27 07:45:10;;;;;;;;;6.00;4.33;;;;;23.01;39.42;101377.09;5068876;28;46356;-75
2023/04/27 07:47:36;;;;;;;;;5.00;5.00;;;;;22.79;39.99;101371.03;5073967;27;45475;-75
2023/04/27 07:50:03;;;;;;;;;5.67;5.67;;;;;22.60;40.55;101366.56;5070335;28;45459;-75
2023/04/27 07:52:28;;;;;;;;;4.00;4.00;;;;;22.45;40.91;101371.53;5074403;28;45306;-75
2023/04/27 07:54:54;;;;;;;;;5.00;3.00;;;;;22.32;40.97;101366.44;5071965;28;45603;-76
2023/04/27 07:57:19;;;;;;;;;6.00;6.00;;;;;22.21;40.65;101360.22;5073337;28;45482;-77
2023/04/27 07:59:45;;;;;;;;;6.67;6.00;;;;;22.10;40.71;101369.31;5067991;28;45375;-75
2023/04/27 08:02:10;;;;;;;;;5.00;5.00;;;;;22.00;41.28;101370.31;5067581;28;45466;-75
2023/04/27 08:04:36;;;;;;;;;5.67;5.00;;;;;21.93;41.08;101370.03;5070392;28;46615;-77
2023/04/27 08:07:01;;;;;;;;;5.00;4.33;;;;;21.86;41.56;101377.84;5074105;28;45562;-78
2023/04/27 08:09:26;;;;;;;;;4.33;4.33;;;;;21.82;41.60;101376.44;5072206;28;49378;-77
2023/04/27 08:11:51;;;;;;;;;4.00;4.00;;;;;21.77;41.90;101370.59;5072547;27;45744;-76
2023/04/27 08:14:17;;;;;;;;;5.33;4.33;;;;;21.76;42.12;101374.31;5073125;28;57122;-75
2023/04/27 08:16:43;;;;;;;;;4.67;3.00;;;;;21.72;42.44;101381.84;5067105;28;45337;-80
2023/04/27 08:19:10;;;;;;;;;5.00;4.00;;;;;21.71;42.40;101380.13;5074028;28;45572;-77
2023/04/27 08:21:36;;;;;;;;;6.00;4.33;;;;;21.67;42.56;101378.69;5072567;28;45734;-77
2023/04/27 08:24:03;;;;;;;;;5.00;4.00;;;;;21.65;42.89;101377.94;5059760;28;46247;-77
2023/04/27 08:26:29;;;;;;;;;4.00;4.00;;;;;21.62;42.82;101370.97;5063209;28;45457;-76
2023/04/27 08:28:58;;;;;;;;;6.00;4.33;;;;;21.63;43.10;101375.41;5055260;28;45610;-76
2023/04/27 08:31:24;;;;;;;;;7.00;6.00;;;;;21.62;43.29;101364.75;5063719;28;45411;-76
2023/04/27 08:33:51;;;;;;;;;5.25;4.00;;;;;21.62;42.53;101360.19;5066489;27;46071;-75
2023/04/27 08:36:16;;;;;;;;;8.00;6.00;;;;;21.59;42.38;101353.22;5068134;28;45431;-79
2023/04/27 08:38:41;;;;;;;;;4.50;4.50;;;;;21.56;42.27;101347.25;5066780;28;52963;-76
2023/04/27 08:41:07;;;;;;;;;5.00;4.33;;;;;21.53;42.00;101352.91;5064897;28;45509;-76
2023/04/27 08:43:34;;;;;;;;;7.75;7.75;;;;;21.49;41.75;101352.34;5069754;28;46003;-84
2023/04/27 08:46:00;;;;;;;;;6.00;6.00;;;;;21.48;41.92;101363.28;5065982;28;45467;-78
2023/04/27 08:48:25;;;;;;;;;8.50;6.50;;;;;21.46;41.66;101356.19;5070373;28;45606;-78
2023/04/27 08:50:52;;;;;;;;;8.33;7.00;;;;;21.46;42.16;101364.28;5066998;28;45853;-76
2023/04/27 08:53:21;;;;;;;;;4.75;4.75;;;;;21.48;42.51;101358.75;5062143;28;46011;-76
2023/04/27 08:55:47;;;;;;;;;7.50;5.00;;;;;21.50;42.33;101358.63;5059724;28;45720;-78
2023/04/27 08:58:12;;;;;;;;;5.25;4.25;;;;;21.51;42.79;101355.78;5055221;28;45500;-78
2023/04/27 09:00:40;;;;;;;;;6.67;5.33;;;;;21.51;42.56;101344.97;5071535;28;45360;-77
2023/04/27 09:03:06;;;;;;;;;7.67;4.67;;;;;21.54;42.65;101346.53;5059150;28;45404;-76
2023/04/27 09:05:32;;;;;;;;;6.00;6.00;;;;;21.55;42.88;101340.16;5068713;27;45425;-80
2023/04/27 09:08:07;;;;;;;;;5.00;3.00;;;;;21.57;43.37;101344.41;5065448;28;45909;-79
2023/04/27 09:10:46;;;;;;;;;5.00;3.00;;;;;21.59;43.05;101355.09;5058800;27;45776;-79
2023/04/27 09:13:12;;;;;;;;;5.00;4.33;;;;;21.62;43.40;101351.25;5059855;28;45495;-78
2023/04/27 09:15:48;;;;;;;;;5.50;5.50;;;;;21.64;43.34;101343.84;5061054;28;45564;-78
2023/04/27 09:18:19;;;;;;;;;7.00;5.50;;;;;21.64;43.19;101344.69;5059820;28;45607;-78
2023/04/27 09:20:51;;;;;;;;;5.00;4.00;;;;;21.66;43.64;101350.81;5069486;28;46455;-76
2023/04/27 09:23:27;;;;;;;;;4.00;4.00;;;;;21.68;43.22;101356.06;5062200;28;46206;-78
2023/04/27 09:25:55;;;;;;;;;5.67;4.00;;;;;21.68;43.00;101356.06;5065699;28;45431;-77
2023/04/27 09:28:21;;;;;;;;;8.67;5.67;;;;;21.71;43.83;101353.97;5061068;28;45387;-75
2023/04/27 09:30:54;;;;;;;;;5.00;5.00;;;;;21.73;43.43;101342.19;5067462;27;45520;-76
2023/04/27 09:33:28;;;;;;;;;5.67;5.67;;;;;21.75;43.90;101353.69;5053725;28;46228;-76
2023/04/27 09:35:53;;;;;;;;;4.67;4.67;;;;;21.77;44.08;101343.59;5059224;28;45634;-78
2023/04/27 09:38:20;;;;;;;;;7.00;5.67;;;;;21.79;43.60;101349.72;5062184;28;45715;-77
2023/04/27 09:40:47;;;;;;;;;5.67;4.33;;;;;21.81;43.62;101345.00;5056897;28;45513;-76
2023/04/27 09:43:13;;;;;;;;;3.67;3.67;;;;;21.82;43.55;101344.00;5063073;28;46458;-78
2023/04/27 09:45:38;;;;;;;;;5.00;5.00;;;;;21.83;44.17;101343.88;5061297;28;45443;-77
2023/04/27 09:48:05;;;;;;;;;6.50;6.00;;;;;21.84;42.68;101339.34;5064236;28;45379;-75
2023/04/27 09:50:38;;;;;;;;;7.00;6.67;;;;;21.83;42.27;101340.34;5066175;28;45508;-75
2023/04/27 09:53:10;;;;;;;;;9.25;7.75;;;;;21.80;41.85;101337.91;5059080;28;46205;-77
2023/04/27 09:55:41;;;;;;;;;6.75;6.00;;;;;21.76;42.22;101334.63;5039731;28;46218;-76
2023/04/27 09:58:31;;;;;;;;;7.00;7.00;;;;;21.69;41.64;101331.63;5070399;28;45562;-76
2023/04/27 10:01:06;;;;;;;;;7.00;7.00;;;;;21.65;41.48;101323.94;5071249;28;45416;-76
2023/04/27 10:03:37;;;;;;;;;4.25;4.25;;;;;21.60;41.32;101327.06;5062707;28;45694;-76
2023/04/27 10:06:33;;;;;;;;;7.50;6.50;;;;;21.55;41.42;101327.47;5068099;28;45691;-76
2023/04/27 10:09:04;;;;;;;;;7.00;6.00;;;;;21.51;41.89;101323.38;5060968;27;45493;-77
2023/04/27 10:11:50;;;;;;;;;5.25;5.25;;;;;21.47;41.33;101321.94;5056445;27;45486;-76
2023/04/27 10:14:20;;;;;;;;;5.67;5.67;;;;;21.45;42.07;101327.47;5059370;28;46093;-76
2023/04/27 10:16:57;;;;;;;;;4.67;4.00;;;;;21.43;41.61;101331.31;5062002;28;45410;-76
2023/04/27 10:19:24;;;;;;;;;3.67;3.33;;;;;21.39;41.75;101328.06;5070305;28;45495;-76
2023/04/27 10:21:52;;;;;;;;;6.00;4.33;;;;;21.38;42.13;101320.91;5069932;27;45340;-78
2023/04/27 10:24:17;;;;;;;;;5.00;5.00;;;;;21.35;41.74;101320.34;5067403;28;46150;-77
2023/04/27 10:26:47;;;;;;;;;4.25;4.25;;;;;21.33;42.05;101309.69;5055475;27;45622;-77
2023/04/27 10:29:15;;;;;;;;;4.33;4.33;;;;;21.31;41.64;101315.25;5056661;28;45611;-77
2023/04/27 10:31:46;;;;;;;;;4.00;4.00;;;;;21.29;41.77;101306.41;5054466;28;45707;-77
2023/04/27 10:34:16;;;;;;;;;4.00;4.00;;;;;21.29;42.30;101311.00;5065553;27;46099;-76
2023/04/27 10:36:41;;;;;;;;;4.00;4.00;;;;;21.27;42.19;101308.41;5070941;28;45609;-77
2023/04/27 10:39:25;;;;;;;;;5.00;5.00;;;;;21.26;41.89;101309.38;5071690;28;45440;-76
2023/04/27 10:41:55;;;;;;;;;5.00;3.00;;;;;21.26;41.68;101300.47;5056540;27;45488;-76
2023/04/27 10:44:29;;;;;;;;;6.00;6.00;;;;;21.25;41.68;101301.47;5067530;28;45615;-77
2023/04/27 10:46:56;;;;;;;;;5.25;5.25;;;;;21.25;41.85;101296.06;5068886;28;45440;-76
2023/04/27 10:49:22;;;;;;;;;5.00;5.00;;;;;21.24;42.39;101300.59;5066233;27;45850;-76
2023/04/27 10:51:49;;;;;;;;;3.00;3.00;;;;;21.24;41.89;101305.13;5063473;28;45441;-76
2023/04/27 10:54:15;;;;;;;;;7.00;7.00;;;;;21.23;41.86;101303.44;5072084;28;46054;-76
2023/04/27 10:56:41;;;;;;;;;3.00;3.00;;;;;21.21;42.18;101297.31;5064854;28;45532;-76
2023/04/27 10:59:07;;;;;;;;;5.00;5.00;;;;;21.21;41.92;101300.03;5067636;28;45356;-76
2023/04/27 11:01:32;;;;;;;;;3.67;3.67;;;;;21.19;42.38;101290.22;5063884;28;45714;-76
2023/04/27 11:03:59;;;;;;;;;5.00;5.00;;;;;21.21;42.33;101300.03;5065277;27;45542;-76
2023/04/27 11:06:27;;;;;;;;;5.00;5.00;;;;;21.18;41.96;101299.28;5070613;28;45636;-76
2023/04/27 11:08:53;;;;;;;;;4.00;4.00;;;;;21.18;41.80;101295.75;5062095;28;45529;-77
2023/04/27 11:11:18;;;;;;;;;5.00;5.00;;;;;21.17;42.03;101294.91;5064125;27;45582;-76
2023/04/27 11:13:47;;;;;;;;;4.67;4.00;;;;;21.16;42.01;101285.09;5061974;28;45578;-76
2023/04/27 11:16:14;;;;;;;;;4.00;4.00;;;;;21.17;42.32;101288.66;5066484;27;45488;-76
2023/04/27 11:18:39;;;;;;;;;4.00;4.00;;;;;21.15;42.12;101271.72;5060963;28;45519;-76
2023/04/27 11:21:07;;;;;;;;;7.00;5.00;;;;;21.16;41.95;101279.69;5062988;27;45624;-76
2023/04/27 11:23:36;;;;;;;;;4.00;4.00;;;;;21.17;42.41;101276.00;5055674;27;46621;-76
2023/04/27 11:26:16;;;;;;;;;6.00;6.00;;;;;21.20;41.90;101274.88;5056456;27;45852;-76
2023/04/27 11:28:56;;;;;;;;;6.00;4.00;;;;;21.21;42.47;101270.34;5057868;27;45473;-76
2023/04/27 11:31:21;;;;;;;;;8.25;7.75;;;;;21.21;41.95;101263.06;5061054;27;45365;-76
2023/04/27 11:33:48;;;;;;;;;6.25;4.25;;;;;21.23;42.11;101269.19;5059243;27;45648;-75
2023/04/27 11:36:17;;;;;;;;;12.00;7.25;;;;;21.24;42.44;101267.31;5059637;27;45400;-75
2023/04/27 11:38:43;;;;;;;;;7.00;5.25;;;;;21.25;42.21;101250.16;5059798;27;45435;-75
2023/04/27 11:41:08;;;;;;;;;6.00;6.00;;;;;21.25;42.22;101237.50;5064119;27;45567;-76
2023/04/27 11:43:36;;;;;;;;;5.00;4.00;;;;;21.26;42.40;101235.66;5063821;27;54414;-76
2023/04/27 11:46:05;;;;;;;;;5.75;4.00;;;;;21.26;42.75;101233.78;5066469;28;45580;-75
2023/04/27 11:48:31;;;;;;;;;5.33;5.33;;;;;21.29;42.82;101225.44;5053004;28;45567;-76
2023/04/27 11:51:00;;;;;;;;;6.67;5.00;;;;;21.35;43.01;101215.06;5067049;28;45751;-81
2023/04/27 11:53:31;;;;;;;;;6.00;6.00;;;;;21.43;42.84;101218.75;5071698;28;45410;-82
2023/04/27 11:55:59;;;;;;;;;5.67;4.00;;;;;21.50;43.20;101212.78;5071599;28;45636;-76
2023/04/27 11:58:26;;;;;;;;;6.75;6.00;;;;;21.54;42.26;101225.00;5072389;28;45600;-76
2023/04/27 12:00:52;;;;;;;;;8.75;7.25;;;;;21.53;42.64;101216.03;5067976;28;45482;-76
2023/04/27 12:03:17;;;;;;;;;7.33;6.00;;;;;21.58;42.94;101221.03;5071715;28;45432;-76
2023/04/27 12:05:52;;;;;;;;;6.00;6.00;;;;;21.61;42.92;101209.91;5066887;28;47994;-77
2023/04/27 12:08:18;;;;;;;;;4.33;4.33;;;;;21.65;43.11;101207.75;5062841;28;45547;-76
2023/04/27 12:10:44;;;;;;;;;5.67;5.00;;;;;21.69;43.11;101206.47;5055328;28;45434;-75
2023/04/27 12:13:09;;;;;;;;;9.33;6.33;;;;;21.72;42.68;101195.44;5062014;28;46309;-75
2023/04/27 12:15:35;;;;;;;;;5.25;5.25;;;;;21.75;43.57;101200.56;5053989;28;45431;-79
2023/04/27 12:18:00;;;;;;;;;5.33;4.67;;;;;21.80;42.96;101197.41;5039723;28;45390;-81
2023/04/27 12:20:25;;;;;;;;;4.00;4.00;;;;;21.83;42.96;101194.41;5064931;28;45359;-75
2023/04/27 12:22:51;;;;;;;;;3.33;3.33;;;;;21.85;43.26;101193.28;5060934;28;46919;-75
2023/04/27 12:25:17;;;;;;;;;5.00;4.67;;;;;21.89;43.28;101201.06;5055713;28;45439;-75
2023/04/27 12:27:46;;;;;;;;;5.00;3.67;;;;;21.93;43.32;101197.06;5060743;28;45765;-79
2023/04/27 12:30:12;;;;;;;;;6.67;4.33;;;;;21.97;43.26;101190.38;5052820;27;45916;-76
2023/04/27 12:32:38;;;;;;;;;7.67;5.00;;;;;22.00;43.44;101189.22;5059286;28;46388;-77
2023/04/27 12:35:05;;;;;;;;;6.67;5.33;;;;;22.04;43.30;101188.81;5057562;28;45376;-84
2023/04/27 12:37:30;;;;;;;;;4.67;4.67;;;;;22.08;43.88;101190.19;5071514;28;45454;-80
2023/04/27 12:39:56;;;;;;;;;6.33;3.33;;;;;22.12;43.63;101190.78;5059503;28;45510;-78
2023/04/27 12:42:23;;;;;;;;;4.33;4.33;;;;;22.14;43.68;101191.47;5068187;28;45465;-77
2023/04/27 12:44:48;;;;;;;;;3.00;3.00;;;;;22.16;43.78;101192.19;5063166;28;47210;-76
2023/04/27 12:47:14;;;;;;;;;4.00;3.00;;;;;22.18;43.36;101182.06;5071328;28;45352;-83
2023/04/27 12:49:40;;;;;;;;;5.33;4.00;;;;;22.20;43.86;101185.44;5068589;28;45763;-79
2023/04/27 12:52:05;;;;;;;;;4.00;4.00;;;;;22.21;44.00;101179.06;5061122;28;60038;-79
2023/04/27 12:54:30;;;;;;;;;3.00;3.00;;;;;22.23;43.95;101174.34;5062031;28;58990;-78
2023/04/27 12:56:55;;;;;;;;;4.33;4.33;;;;;22.24;43.68;101172.50;5071214;28;52618;-87
2023/04/27 12:59:21;;;;;;;;;4.00;2.67;;;;;22.24;43.40;101170.63;5071756;28;45476;-82
2023/04/27 13:01:46;;;;;;;;;5.33;5.33;;;;;22.27;43.18;101165.94;5052812;28;45987;-73
2023/04/27 13:04:18;;;;;;;;;7.00;5.00;;;;;22.22;41.79;101164.53;5055432;28;45419;-73
2023/04/27 13:06:43;;;;;;;;;5.67;5.67;;;;;22.19;41.74;101159.41;5071285;28;45659;-73
2023/04/27 13:09:09;;;;;;;;;4.67;3.00;;;;;22.17;41.52;101156.03;5059984;28;45378;-73
2023/04/27 13:11:34;;;;;;;;;11.33;9.00;;;;;22.15;41.80;101154.47;5069722;28;45964;-73
2023/04/27 13:14:00;;;;;;;;;7.33;5.00;;;;;22.12;41.93;101155.63;5071010;28;45835;-74
2023/04/27 13:16:26;;;;;;;;;8.67;7.33;;;;;22.10;41.62;101152.19;5073158;28;45412;-72
2023/04/27 13:18:52;;;;;;;;;4.67;4.00;;;;;22.11;41.78;101159.31;5062538;28;45420;-73
2023/04/27 13:21:18;;;;;;;;;7.67;7.00;;;;;22.08;41.44;101156.91;5065126;28;45820;-77
2023/04/27 13:23:43;;;;;;;;;10.00;8.00;;;;;22.04;41.53;101164.47;5058644;28;46990;-78
2023/04/27 13:26:08;;;;;;;;;5.67;5.33;;;;;22.06;41.73;101175.97;5066291;28;45499;-77
2023/04/27 13:28:34;;;;;;;;;7.67;5.33;;;;;22.09;41.94;101180.25;5065001;28;46779;-76
2023/04/27 13:30:59;;;;;;;;;11.00;6.67;;;;;22.11;42.28;101179.09;5067875;28;46380;-76
2023/04/27 13:33:24;;;;;;;;;6.67;5.00;;;;;22.13;42.08;101178.94;5060064;28;45487;-76
2023/04/27 13:35:50;;;;;;;;;6.33;5.00;;;;;22.15;42.44;101168.81;5042080;28;46370;-74
2023/04/27 13:38:15;;;;;;;;;5.00;5.00;;;;;22.17;42.17;101155.16;5060337;28;45435;-77
2023/04/27 13:40:41;;;;;;;;;3.67;3.67;;;;;22.19;42.05;101161.28;5059775;28;46020;-78
2023/04/27 13:43:06;;;;;;;;;5.00;5.00;;;;;22.20;42.27;101163.00;5063352;28;45491;-74
2023/04/27 13:45:31;;;;;;;;;5.67;5.00;;;;;22.22;42.47;101166.38;5047516;28;45944;-75
2023/04/27 13:47:57;;;;;;;;;6.67;5.67;;;;;22.23;42.27;101168.06;5049687;28;47280;-76
2023/04/27 13:50:22;;;;;;;;;6.33;5.67;;;;;22.25;42.84;101160.69;5062601;27;46268;-74
2023/04/27 13:52:47;;;;;;;;;5.00;5.00;;;;;22.27;42.44;101160.53;5067523;28;50264;-75
2023/04/27 13:55:13;;;;;;;;;4.00;4.00;;;;;22.23;42.14;101160.81;5062027;28;45490;-74
2023/04/27 13:57:38;;;;;;;;;9.00;3.67;;;;;22.27;42.13;101155.13;5059334;28;45749;-75
2023/04/27 14:00:06;;;;;;;;;6.33;6.33;;;;;22.27;42.44;101147.84;5059844;28;46088;-75
2023/04/27 14:02:32;;;;;;;;;5.67;5.67;;;;;22.30;42.73;101146.69;5065597;28;45510;-76
2023/04/27 14:04:58;;;;;;;;;5.33;5.00;;;;;22.30;42.23;101150.25;5070412;28;45424;-74
2023/04/27 14:07:23;;;;;;;;;5.67;5.33;;;;;22.33;42.48;101149.97;5069418;28;45987;-75
2023/04/27 14:09:48;;;;;;;;;5.67;5.33;;;;;22.36;42.49;101149.66;5061901;28;46207;-75
2023/04/27 14:12:14;;;;;;;;;3.00;3.00;;;;;22.38;43.07;101144.97;5067199;28;52315;-75
2023/04/27 14:14:39;;;;;;;;;4.00;4.00;;;;;22.40;42.70;101144.78;5070219;27;45620;-73
2023/04/27 14:17:05;;;;;;;;;5.00;4.67;;;;;22.43;42.79;101130.13;5065168;28;45645;-74
2023/04/27 14:19:31;;;;;;;;;5.67;5.67;;;;;22.44;42.74;101127.25;5072418;28;45522;-76
2023/04/27 14:21:56;;;;;;;;;6.00;6.00;;;;;22.45;42.97;101128.97;5063720;28;45630;-77
2023/04/27 14:24:22;;;;;;;;;6.67;6.00;;;;;22.47;42.82;101134.22;5073458;28;45522;-76
2023/04/27 14:26:49;;;;;;;;;5.67;4.00;;;;;22.48;43.19;101131.38;5067417;28;45463;-80
2023/04/27 14:29:15;;;;;;;;;5.00;5.00;;;;;22.47;42.75;101121.56;5071068;28;45674;-81
2023/04/27 14:31:40;;;;;;;;;5.00;4.00;;;;;22.48;42.77;101119.72;5068809;27;45449;-79
2023/04/27 14:34:07;;;;;;;;;4.00;4.00;;;;;22.48;42.80;101125.13;5063788;27;45582;-74
2023/04/27 14:36:33;;;;;;;;;6.33;5.33;;;;;22.47;43.39;101104.47;5072339;28;45469;-74
2023/04/27 14:38:59;;;;;;;;;6.00;5.00;;;;;22.47;43.02;101110.72;5066321;28;46255;-76
2023/04/27 14:41:26;;;;;;;;;3.67;3.67;;;;;22.48;43.16;101115.13;5071651;28;45544;-77
2023/04/27 14:43:51;;;;;;;;;5.33;5.33;;;;;22.49;43.24;101108.72;5063640;28;45781;-76
2023/04/27 14:46:17;;;;;;;;;4.00;4.00;;;;;22.50;43.19;101107.75;5069682;28;47955;-76
2023/04/27 14:48:43;;;;;;;;;4.00;4.00;;;;;22.53;43.61;101111.13;5070973;28;45682;-76
2023/04/27 14:51:08;;;;;;;;;4.33;3.00;;;;;22.53;43.69;101098.47;5070874;27;45483;-75
2023/04/27 14:53:33;;;;;;;;;6.00;4.67;;;;;22.55;43.73;101103.72;5063037;28;45524;-76
2023/04/27 14:55:59;;;;;;;;;6.00;5.00;;;;;22.56;43.16;101100.03;5071468;28;45487;-77
2023/04/27 14:58:24;;;;;;;;;4.00;4.00;;;;;22.57;43.70;101094.47;5071771;28;55866;-78
2023/04/27 15:00:50;;;;;;;;;5.00;4.00;;;;;22.58;43.34;101096.19;5070060;28;45456;-74
2023/04/27 15:03:15;;;;;;;;;5.00;5.00;;;;;22.60;43.56;101087.91;5067358;28;45677;-75
2023/04/27 15:05:41;;;;;;;;;6.00;4.33;;;;;22.60;43.98;101087.91;5070981;27;45428;-75
2023/04/27 15:08:07;;;;;;;;;4.00;2.33;;;;;22.60;43.66;101077.94;5077808;27;47098;-75
2023/04/27 15:10:32;;;;;;;;;7.00;4.67;;;;;22.62;43.46;101069.66;5058138;27;45559;-77
2023/04/27 15:12:57;;;;;;;;;5.67;4.33;;;;;22.62;43.75;101066.94;5062128;28;50844;-75
2023/04/27 15:15:23;;;;;;;;;2.67;2.67;;;;;22.62;44.09;101075.06;5062642;28;47169;-74
2023/04/27 15:17:48;;;;;;;;;3.33;3.33;;;;;22.63;43.81;101068.66;5055294;27;60731;-78
2023/04/27 15:20:13;;;;;;;;;5.00;5.00;;;;;22.63;43.78;101069.50;5047029;28;57662;-74
2023/04/27 15:22:38;;;;;;;;;5.00;3.33;;;;;22.63;43.89;101065.94;5061076;27;47077;-74
2023/04/27 15:25:04;;;;;;;;;3.67;3.67;;;;;22.62;43.82;101070.53;5057936;28;47328;-75
2023/04/27 15:27:29;;;;;;;;;4.67;4.67;;;;;22.65;44.07;101072.06;5058543;28;45463;-72
2023/04/27 15:29:57;;;;;;;;;5.00;3.00;;;;;22.65;44.19;101072.06;5061639;28;45518;-71
2023/04/27 15:32:28;;;;;;;;;5.33;5.33;;;;;22.63;43.86;101060.53;5061733;28;45538;-71
2023/04/27 15:34:53;;;;;;;;;3.00;3.00;;;;;22.66;44.14;101062.06;5057553;28;45625;-72
2023/04/27 15:37:19;;;;;;;;;5.00;3.00;;;;;22.67;43.96;101069.19;5062751;28;46095;-75
2023/04/27 15:39:44;;;;;;;;;4.00;4.00;;;;;22.65;43.61;101055.84;5072155;28;45436;-74
2023/04/27 15:42:10;;;;;;;;;4.00;4.00;;;;;22.65;43.88;101053.13;5070063;27;45497;-75
2023/04/27 15:44:35;;;;;;;;;4.00;4.00;;;;;22.64;43.84;101049.56;5074020;28;45710;-73
2023/04/27 15:47:00;;;;;;;;;4.67;3.33;;;;;22.64;44.04;101046.00;5067187;28;46314;-73
2023/04/27 15:49:26;;;;;;;;;2.33;2.33;;;;;22.64;44.13;101040.59;5065388;28;45503;-71
2023/04/27 15:51:54;;;;;;;;;4.00;4.00;;;;;22.62;43.97;101035.34;5062424;28;45877;-72
2023/04/27 15:54:19;;;;;;;;;6.00;4.67;;;;;22.64;44.39;101030.63;5072895;28;45431;-72
2023/04/27 15:56:45;;;;;;;;;3.33;3.33;;;;;22.66;43.94;101033.19;5066607;28;47139;-72
2023/04/27 15:59:10;;;;;;;;;5.00;5.00;;;;;22.67;44.25;101026.75;5069509;28;45623;-72
2023/04/27 16:01:36;;;;;;;;;5.00;5.00;;;;;22.67;44.19;101026.75;5065900;27;45411;-72
2023/04/27 16:04:01;;;;;;;;;6.67;4.00;;;;;22.69;44.11;101023.91;5060591;28;45521;-72
2023/04/27 16:06:35;;;;;;;;;3.67;3.33;;;;;22.69;44.39;101029.31;5069919;28;46080;-72
2023/04/27 16:09:02;;;;;;;;;3.33;3.33;;;;;22.69;43.93;101021.19;5070831;28;45467;-71
2023/04/27 16:11:28;;;;;;;;;4.00;3.67;;;;;22.68;44.47;101025.75;5063833;28;45414;-73
2023/04/27 16:13:54;;;;;;;;;3.00;3.00;;;;;22.69;44.53;101023.91;5070005;28;45835;-76
2023/04/27 16:16:19;;;;;;;;;4.67;4.00;;;;;22.70;43.91;101021.03;5051697;28;46957;-74
2023/04/27 16:18:45;;;;;;;;;4.00;4.00;;;;;22.70;43.10;101021.03;5072248;28;45479;-74
2023/04/27 16:21:10;;;;;;;;;6.67;5.00;;;;;22.68;43.78;101022.22;5068685;28;47484;-71
2023/04/27 16:23:36;;;;;;;;;4.00;4.00;;;;;22.66;43.77;101016.09;5067973;28;45456;-72
2023/04/27 16:26:01;;;;;;;;;4.33;4.33;;;;;22.63;43.81;101014.53;5068739;28;45845;-72
2023/04/27 16:28:26;;;;;;;;;4.00;4.00;;;;;22.66;43.80;101016.09;5062316;28;45485;-72
2023/04/27 16:30:52;;;;;;;;;4.67;4.00;;;;;22.67;43.49;101013.22;5062303;28;45606;-72
2023/04/27 16:33:18;;;;;;;;;7.00;6.00;;;;;22.66;43.44;101016.09;5059352;28;45677;-74
2023/04/27 16:35:44;;;;;;;;;2.00;2.00;;;;;22.66;43.63;101010.66;5057748;28;47398;-72
2023/04/27 16:38:09;;;;;;;;;5.33;4.00;;;;;22.64;43.56;101002.72;5062050;28;52190;-72
2023/04/27 16:40:34;;;;;;;;;4.33;4.33;;;;;22.65;43.83;101007.13;5057479;28;50448;-73
2023/04/27 16:43:00;;;;;;;;;6.00;4.00;;;;;22.64;43.96;101003.56;5050050;28;45520;-72
2023/04/27 16:45:25;;;;;;;;;5.00;3.67;;;;;22.65;43.95;100996.31;5064018;28;45462;-73
2023/04/27 16:47:50;;;;;;;;;4.00;4.00;;;;;22.66;43.82;100995.31;5063846;28;45463;-75
2023/04/27 16:50:16;;;;;;;;;4.00;4.00;;;;;22.66;43.87;100995.31;5067539;28;45727;-74
2023/04/27 16:52:41;;;;;;;;;6.33;4.67;;;;;22.66;44.12;100987.19;5068175;27;45541;-74
2023/04/27 16:55:07;;;;;;;;;3.00;3.00;;;;;22.68;44.05;100990.56;5065009;28;46245;-73
2023/04/27 16:57:33;;;;;;;;;3.33;3.33;;;;;22.66;43.68;100989.88;5056436;28;46132;-72
2023/04/27 17:00:00;;;;;;;;;7.00;6.67;;;;;22.67;44.17;100988.00;5060715;28;45358;-71
2023/04/27 17:02:25;;;;;;;;;3.33;3.33;;;;;22.66;44.21;100991.72;5066188;28;45652;-71
2023/04/27 17:04:51;;;;;;;;;6.00;4.00;;;;;22.67;44.18;100990.72;5070869;28;46056;-71
2023/04/27 17:07:17;;;;;;;;;5.00;4.00;;;;;22.67;44.16;100993.44;5071008;28;45537;-72
2023/04/27 17:09:42;;;;;;;;;3.67;3.67;;;;;22.66;43.80;100999.84;5065534;28;45607;-72
2023/04/27 17:12:11;;;;;;;;;4.33;4.33;;;;;22.65;44.00;101015.25;5059471;28;49857;-72
2023/04/27 17:14:37;;;;;;;;;4.67;4.67;;;;;22.66;43.95;101025.06;5057593;28;46220;-71
2023/04/27 17:17:03;;;;;;;;;5.00;5.00;;;;;22.66;44.49;101013.38;5059400;28;45521;-74
2023/04/27 17:19:28;;;;;;;;;5.33;4.00;;;;;22.67;44.50;101023.19;5064884;27;45780;-73